Newfoundland Lynx — VAAZ — position and weather

sailwx.info

Track history (hours):
 
Tides and Currents Weather Stations Pressure Air Temp Water Temp Dewpoint Dewpoint Depression Visibility Wind Speed Wind Dir Waves Ship Positions

Newfoundland Lynx

Last reported at 2018-Feb-25 17:00 UTC. Time now 2018-Feb-25 18:08 UTC.
Position N 47°42' W 053°12'.

Length 67.5 m; beam 13.5 m; draft 8.1 m.

Type: Fishing. MMSI: 316011910.

Wind from 340 at 16 knots

Barometer 1024.7 mb
Air temperature -3.5 ° C
Dewpoint 1.5 ° C

Date/timePositionNaut miles runAvg speedWind from/ knotsBaromVisibWave heightAir tempDewpointWater temp
2018-Feb-25 17:00N 47°42' W 053°12'0 0.0 340 / 161024.7 -3.5 1.5
2018-Feb-25 16:00N 47°42' W 053°12'0 0.0 340 / 111024.6 -4.0 1.6
2018-Feb-25 15:00N 47°42' W 053°12'0 0.0 350 / 111024.4 -4.7 2.0
2018-Feb-25 14:00N 47°42' W 053°12'0 0.0 350 / 111025.2 -5.6 1.7
2018-Feb-25 13:00N 47°42' W 053°12'0 0.0 330 / 151023.0 -6.0 1.9
2018-Feb-25 12:00N 47°42' W 053°12'0 0.0 340 / 61021.2 -7.3 1.1
2018-Feb-25 11:00N 47°42' W 053°12'0 0.0 340 / 71018.9 -8.4 0.3
2018-Feb-25 10:00N 47°42' W 053°12'0 0.0 340 / 101017.1 -8.7-0.0
2018-Feb-25 09:00N 47°42' W 053°12'0 0.0 340 / 91016.3 -8.8-0.4
2018-Feb-25 08:00N 47°42' W 053°12'0 0.0 340 / 91014.8 -8.0 0.6
2018-Feb-25 07:00N 47°42' W 053°12'0 0.0 340 / 101013.1 -7.4 1.0
2018-Feb-25 06:00N 47°42' W 053°12'0 0.0 360 / 121011.0 -5.9 2.7
2018-Feb-25 05:00N 47°42' W 053°12'0 0.0 350 / 121008.4 -4.7 4.4
2018-Feb-25 04:00N 47°42' W 053°12'0 0.0 010 / 61007.0 -3.1 5.6
2018-Feb-25 03:00N 47°42' W 053°12'0 0.0 360 / 71005.4 -3.2 5.4
2018-Feb-25 02:00N 47°42' W 053°12'0 0.0 360 / 101004.1 -2.7 5.8
2018-Feb-25 01:00N 47°42' W 053°12'0 0.0 360 / 101002.1 -2.4 6.0
2018-Feb-25 00:00N 47°42' W 053°12'0 0.0 360 / 81000.9 -1.7 6.5
2018-Feb-24 23:00N 47°42' W 053°12'0 0.0 010 / 31000.5 -0.6 7.6
2018-Feb-24 22:00N 47°42' W 053°12'0 0.0 020 / 3999.6 -0.5 7.0
2018-Feb-24 21:00N 47°42' W 053°12'0 0.0 010 / 2999.5 -0.6 6.5
2018-Feb-24 20:00N 47°42' W 053°12'0 0.0 080 / 31000.0 -1.4 5.8
2018-Feb-24 19:00N 47°42' W 053°12'0 0.0 170 / 41000.8 -1.3 5.6
2018-Feb-24 18:00N 47°42' W 053°12'0 0.0 200 / 81002.1 -1.1 5.1
2018-Feb-24 17:00N 47°42' W 053°12'0 0.0 210 / 131003.4 -1.3 4.9
2018-Feb-24 16:00N 47°42' W 053°12'0 0.0 220 / 161005.0 -1.5 5.2
2018-Feb-24 15:00N 47°42' W 053°12'0 0.0 210 / 141006.9 -2.0 5.0
2018-Feb-24 14:00N 47°42' W 053°12'0 0.0 200 / 131009.8 -2.8 4.8
2018-Feb-24 13:00N 47°42' W 053°12'0 0.0 220 / 111011.0 -3.4 5.0
2018-Feb-24 12:00N 47°42' W 053°12'0 0.0 230 / 81012.1 -4.0 4.8
2018-Feb-24 11:00N 47°42' W 053°12'0 0.0 230 / 101012.6 -4.3 5.0
2018-Feb-24 10:00N 47°42' W 053°12'0 0.0 240 / 91013.0 -4.7 4.7
2018-Feb-24 09:00N 47°42' W 053°12'0 0.0 230 / 81014.7 -4.9 4.4
2018-Feb-24 08:00N 47°42' W 053°12'0 0.0 240 / 101016.0 -5.0 3.4
2018-Feb-24 07:00N 47°42' W 053°12'0 0.0 240 / 91016.2 -6.2 2.0
2018-Feb-24 06:00N 47°42' W 053°12'0 0.0 250 / 101016.5 -6.7 1.3
2018-Feb-24 05:00N 47°42' W 053°12'0 0.0 240 / 101017.4 -7.2 0.9
2018-Feb-24 04:00N 47°42' W 053°12'0 0.0 220 / 111017.4 -7.6 0.4
2018-Feb-24 03:00N 47°42' W 053°12'0 0.0 250 / 61019.1 -7.6 0.6
2018-Feb-24 02:00N 47°42' W 053°12'1010.1 220 / 71019.8 -7.0 0.4
2018-Feb-24 01:00N 47°48' W 053°00'1414.4 260 / 121020.9 -6.6 0.7
2018-Feb-24 00:00N 48°00' W 052°48'1312.7
2018-Feb-23 23:00N 48°12' W 052°42'1414.4 290 / 231021.5 -5.5 1.2
2018-Feb-23 22:00N 48°24' W 052°30'1312.6 300 / 281020.4 -5.9 1.5
2018-Feb-23 21:00N 48°36' W 052°24'1312.6 300 / 281020.1 -7.6 0.3
2018-Feb-23 20:00N 48°48' W 052°18'1716.9 310 / 311018.7 -8.7-0.7
2018-Feb-23 19:00N 48°54' W 051°54'10 9.9 320 / 331018.0 -9.4-1.1
2018-Feb-23 18:00N 49°00' W 051°42'1414.3 310 / 361018.2 -11.2-2.7
2018-Feb-23 17:00N 49°12' W 051°30'10 9.9 310 / 371017.8 -11.7-3.4
2018-Feb-23 16:00N 49°18' W 051°18'1312.6 310 / 361018.1 -12.1-3.6
2018-Feb-23 15:00N 49°30' W 051°12'1414.3 310 / 321018.7 -12.2-3.9
2018-Feb-23 14:00N 49°42' W 051°00'1414.3 310 / 401016.9 -12.7-4.2
2018-Feb-23 13:00N 49°54' W 050°48'1414.3 310 / 391015.3 -12.8-3.9
2018-Feb-23 12:00N 50°06' W 050°36'1312.6 310 / 321012.6 -12.7-3.8
2018-Feb-23 11:00N 50°18' W 050°30'1312.6 310 / 341011.8 -11.7-2.2
2018-Feb-23 10:00N 50°30' W 050°24'1414.2 300 / 371011.5 -11.1-1.7
2018-Feb-23 09:00N 50°42' W 050°12'10 9.7 300 / 371010.9 -10.0-0.8
2018-Feb-23 08:00N 50°48' W 050°00'1818.4 300 / 301010.8 -8.6 0.9
2018-Feb-23 07:00N 51°06' W 050°06'1312.6 310 / 281010.7 -8.7 0.4
2018-Feb-23 06:00N 51°18' W 050°12'1414.1 310 / 271010.7 -9.4-0.3
2018-Feb-23 05:00N 51°30' W 050°24'10 9.6 300 / 261010.6 -10.1-0.6
2018-Feb-23 04:00N 51°36' W 050°36'1616.4 300 / 251010.6 -9.8-0.3
2018-Feb-23 03:00N 51°48' W 050°54'1414.1 300 / 271010.7 -10.2-0.8
2018-Feb-23 02:00N 52°00' W 051°06'1312.6 300 / 291008.2 -9.4 0.4
2018-Feb-23 01:00N 52°12' W 051°12'1414.1 300 / 281007.5 -10.2-0.5
2018-Feb-23 00:00N 52°24' W 051°24'1312.5 310 / 261007.7 -9.8-0.0
2018-Feb-22 23:00N 52°36' W 051°30'7 7.0 290 / 311006.4 -9.9-0.2
2018-Feb-22 22:00N 52°42' W 051°36'1414.0 290 / 301006.3 -9.7 0.1
2018-Feb-22 21:00N 52°54' W 051°48'2814.0 290 / 301008.8 -10.1-0.4
2018-Feb-22 19:00N 53°18' W 052°12'1312.5 300 / 271009.4 -8.4 1.2
2018-Feb-22 18:00N 53°30' W 052°18'1312.5 300 / 301008.5 -8.2 1.3
2018-Feb-22 17:00N 53°42' W 052°24'1312.5 300 / 291008.9 -7.5 1.8
2018-Feb-22 16:00N 53°54' W 052°30'1212.0 300 / 301008.4 -6.5 2.7
2018-Feb-22 15:00N 54°06' W 052°30'1312.5 300 / 321006.8 -5.4 3.7
2018-Feb-22 14:00N 54°18' W 052°36'1413.9 310 / 311004.9 -3.3 4.7
2018-Feb-22 13:00N 54°30' W 052°48'1212.5 310 / 301003.7 -3.4 4.8
2018-Feb-22 12:00N 54°42' W 052°54'1615.9 340 / 301002.7 -4.6 4.1
2018-Feb-22 11:00N 54°54' W 053°12'1010.4 330 / 341001.7 -3.8 3.8
2018-Feb-22 10:00N 54°54' W 053°30'1615.8 330 / 351000.8 -4.8 3.9
2018-Feb-22 09:00N 55°06' W 053°48'1515.0 330 / 35999.9 -4.3 4.3
2018-Feb-22 08:00N 55°12' W 054°12'1514.9 320 / 33999.3 -5.1 4.6
2018-Feb-22 07:00N 55°18' W 054°36'1010.2 330 / 301000.0 -5.5 3.4
2018-Feb-22 06:00N 55°18' W 054°54'1514.9 330 / 30998.4 -6.5 3.0
2018-Feb-22 05:00N 55°24' W 055°18'1413.6 310 / 24998.6 -7.5 2.4
2018-Feb-22 04:00N 55°24' W 055°42'6 6.0 280 / 20998.4 -11.3-1.4
2018-Feb-22 03:00N 55°18' W 055°42'0 0.0 310 / 11999.5 -12.9-4.0
2018-Feb-22 02:00N 55°18' W 055°42'9 9.1 290 / 101000.8 -14.0-4.4
2018-Feb-22 01:00N 55°12' W 055°54'6 6.0 270 / 11001.5 -14.4-4.9
2018-Feb-22 00:00N 55°06' W 055°54'3 3.4 170 / 51003.2 -15.0-5.3
2018-Feb-21 23:00N 55°06' W 056°00'3 3.4 170 / 81004.0 -15.5-5.8
2018-Feb-21 22:00N 55°06' W 056°06'0 0.0 150 / 61006.6 -16.0-6.3
2018-Feb-21 21:00N 55°06' W 056°06'3 3.4 160 / 81008.5 -17.4-8.5
2018-Feb-21 20:00N 55°06' W 056°00'3 3.4 210 / 51010.2 -16.5-7.1
2018-Feb-21 19:00N 55°06' W 056°06'3 3.4 240 / 61012.3 -16.6-7.3
2018-Feb-21 18:00N 55°06' W 056°12'3 3.4 250 / 91014.3 -17.4-8.9
2018-Feb-21 17:00N 55°06' W 056°06'7 6.9 270 / 131015.5 -16.1-6.9
2018-Feb-21 16:00N 55°12' W 056°00'3 3.4 270 / 131017.2 -16.5-7.8
2018-Feb-21 15:00N 55°12' W 055°54'0 0.0 290 / 161018.4 -17.1-8.6
2018-Feb-21 14:00N 55°12' W 055°54'7 6.9 280 / 191019.4 -17.0-7.8
2018-Feb-21 13:00N 55°18' W 056°00'1413.8 270 / 231020.1 -16.6-7.1
2018-Feb-21 12:00N 55°30' W 056°12'1413.8 270 / 241020.7 -16.2-6.7
2018-Feb-21 11:00N 55°42' W 056°24'9 9.0 280 / 211020.4 -14.4-4.6
2018-Feb-21 10:00N 55°48' W 056°36'9 9.0 280 / 251021.5 -15.4-5.7
2018-Feb-21 09:00N 55°54' W 056°48'1212.5 270 / 231021.9 -15.3-5.5
2018-Feb-21 08:00N 56°06' W 056°54'7 6.7 280 / 231022.7 -14.9-5.1
2018-Feb-21 07:00N 56°06' W 057°06'9 9.0 270 / 281023.0 -16.6-6.8
2018-Feb-21 06:00N 56°12' W 057°18'7 6.9 270 / 261022.9 -16.8-6.9
2018-Feb-21 05:00N 56°18' W 057°24'9 9.0 280 / 281023.5 -17.6-7.9
2018-Feb-21 04:00N 56°24' W 057°36'7 6.6 270 / 271024.2 -19.1-9.5
2018-Feb-21 03:00N 56°24' W 057°48'3 3.3 270 / 291024.8 -20.2-10.4
2018-Feb-21 02:00N 56°24' W 057°54'3 3.3 270 / 221025.8 -21.9-12.3
2018-Feb-21 01:00N 56°24' W 058°00'7 6.9 270 / 311025.1 -22.1-12.7
2018-Feb-21 00:00N 56°30' W 058°06'3 3.3 270 / 281025.7 -22.8-13.2
2018-Feb-20 23:00N 56°30' W 058°12'0 0.0 270 / 221026.0 -22.5-13.2
2018-Feb-20 22:00N 56°30' W 058°12'7 6.9 280 / 321025.3 -22.7-13.4
2018-Feb-20 21:00N 56°36' W 058°18'7 6.9 280 / 331026.1 -22.4-12.8
2018-Feb-20 20:00N 56°30' W 058°12'7 6.6 300 / 321024.1 -23.3-14.7
2018-Feb-20 19:00N 56°30' W 058°00'7 6.9 290 / 291023.4 -24.1-15.7
2018-Feb-20 18:00N 56°24' W 057°54'0 0.0 290 / 341022.0 -23.1-14.6
2018-Feb-20 17:00N 56°24' W 057°54'0 0.0 290 / 301021.8 -23.3-14.7
2018-Feb-20 16:00N 56°24' W 057°54'3 3.3 280 / 301021.8 -23.2-14.8
2018-Feb-20 15:00N 56°24' W 057°48'3 3.3 280 / 341021.7 -23.3-15.1
2018-Feb-20 14:00N 56°24' W 057°42'0 0.0 290 / 301021.2 -23.1-14.6
2018-Feb-20 13:00N 56°24' W 057°42'6 6.0 280 / 281021.7 -23.1-14.7
2018-Feb-20 12:00N 56°18' W 057°42'3 3.3 280 / 331020.7 -22.0-13.4
2018-Feb-20 11:00N 56°18' W 057°36'0 0.0 300 / 251021.4 -21.6-13.0
2018-Feb-20 10:00N 56°18' W 057°36'0 0.0 310 / 251020.8 -21.6-13.1
2018-Feb-20 09:00N 56°18' W 057°36'7 6.9 300 / 251020.3 -21.0-12.6
2018-Feb-20 08:00N 56°12' W 057°30'0 0.0 310 / 231019.8 -19.1-10.4
2018-Feb-20 07:00N 56°12' W 057°30'7 6.9 310 / 221020.1 -17.8-8.6
2018-Feb-20 06:00N 56°18' W 057°36'0 0.0 300 / 201019.2 -17.2-7.9
2018-Feb-20 05:00N 56°18' W 057°36'7 6.9 300 / 151018.7 -15.3-5.9
2018-Feb-20 04:00N 56°24' W 057°42'3 3.3 310 / 121018.9 -14.6-5.8
2018-Feb-20 03:00N 56°24' W 057°48'0 0.0 290 / 111019.0 -13.7-4.6
2018-Feb-20 02:00N 56°24' W 057°48'3 3.3 240 / 101019.2 -14.4-6.7
2018-Feb-20 01:00N 56°24' W 057°42'6 6.0 270 / 91019.6 -13.9-5.9
2018-Feb-20 00:00N 56°18' W 057°42'0 0.0 240 / 121020.3 -14.1-6.3
2018-Feb-19 23:00N 56°18' W 057°42'0 0.0 240 / 141021.4 -13.8-5.6
2018-Feb-19 22:00N 56°18' W 057°42'7 6.9 240 / 131021.8 -13.6-4.9
2018-Feb-19 21:00N 56°24' W 057°48'3 3.3 240 / 131022.1 -14.3-6.2
2018-Feb-19 20:00N 56°24' W 057°54'0 0.0 240 / 141022.1 -14.1-6.1
2018-Feb-19 19:00N 56°24' W 057°54'3 3.3 240 / 141022.6 -14.2-7.2
2018-Feb-19 18:00N 56°24' W 058°00'7 6.9 250 / 201022.6 -14.1-6.8
2018-Feb-19 17:00N 56°30' W 058°06'0 0.0 250 / 201023.0 -14.5-7.3
2018-Feb-19 16:00N 56°30' W 058°06'0 0.0 250 / 171023.0 -15.1-7.5
2018-Feb-19 15:00N 56°30' W 058°06'3 3.3 260 / 211022.8 -15.7-9.0
2018-Feb-19 14:00N 56°30' W 058°00'7 6.9 270 / 211022.6 -16.4-9.7
2018-Feb-19 13:00N 56°24' W 057°54'0 0.0 270 / 261022.2 -16.0-8.6
2018-Feb-19 12:00N 56°24' W 057°54'0 0.0 270 / 251022.1 -16.2-8.4
2018-Feb-19 11:00N 56°24' W 057°54'6 6.0 270 / 211022.0 -15.6-6.8
2018-Feb-19 10:00N 56°30' W 057°54'7 6.6 260 / 231021.9 -15.7-6.5
2018-Feb-19 09:00N 56°30' W 058°06'0 0.0 280 / 211021.4 -16.6-7.7
2018-Feb-19 08:00N 56°30' W 058°06'3 3.3 300 / 221021.4 -17.1-8.1
2018-Feb-19 07:00N 56°30' W 058°12'7 6.9 290 / 191020.2 -16.4-7.8
2018-Feb-19 06:00N 56°36' W 058°18'0 0.0 300 / 251019.2 -16.0-7.0
2018-Feb-19 05:00N 56°36' W 058°18'3 3.3 290 / 271017.9 -14.5-5.7
2018-Feb-19 04:00N 56°36' W 058°24'0 0.0 300 / 211016.2 -13.4-5.1
2018-Feb-19 03:00N 56°36' W 058°24'0 0.0 300 / 221014.8 -12.6-5.1
2018-Feb-19 02:00N 56°36' W 058°24'3 3.3 290 / 251012.9 -10.8-2.4
2018-Feb-19 01:00N 56°36' W 058°18'0 0.0 280 / 251011.7 -9.9-1.7
2018-Feb-19 00:00N 56°36' W 058°18'7 6.9 250 / 221010.9 -10.3-2.0
2018-Feb-18 23:00N 56°30' W 058°12'0 0.0 240 / 181011.4 -11.7-3.3
2018-Feb-18 22:00N 56°30' W 058°12'3 3.3 240 / 201011.1 -12.8-4.2
2018-Feb-18 21:00N 56°30' W 058°06'0 0.0 240 / 161011.4 -12.6-4.2
2018-Feb-18 20:00N 56°30' W 058°06'3 3.3 220 / 161010.9 -12.7-4.4
2018-Feb-18 19:00N 56°30' W 058°00'3 3.3 210 / 151011.0 -11.6-3.7
2018-Feb-18 18:00N 56°30' W 057°54'6 6.0 220 / 131011.3 -11.3-4.0
2018-Feb-18 17:00N 56°24' W 057°54'3 3.3 220 / 111012.0 -12.5-5.2
2018-Feb-18 16:00N 56°24' W 057°48'0 0.0 230 / 151012.3 -12.9-4.9
2018-Feb-18 15:00N 56°24' W 057°48'9 9.0 250 / 161013.1 -14.2-5.8
2018-Feb-18 14:00N 56°18' W 057°36'0 0.0 250 / 151013.8 -12.6-3.8
2018-Feb-18 13:00N 56°18' W 057°36'3 3.3 260 / 151013.7 -13.3-4.3
2018-Feb-18 12:00N 56°18' W 057°42'6 6.0 270 / 141014.0 -13.9-4.6
2018-Feb-18 11:00N 56°24' W 057°42'3 3.3 270 / 161013.2 -15.5-6.1
2018-Feb-18 10:00N 56°24' W 057°48'3 3.3 270 / 151013.0 -16.3-7.0
2018-Feb-18 09:00N 56°24' W 057°54'0 0.0 280 / 181012.6 -15.7-5.9
2018-Feb-18 08:00N 56°24' W 057°54'3 3.3 290 / 231012.6 -16.5-6.8
2018-Feb-18 07:00N 56°24' W 058°00'7 6.9 290 / 211012.2 -16.9-7.3
2018-Feb-18 06:00N 56°30' W 058°06'0 0.0 290 / 191011.9 -17.1-7.5
2018-Feb-18 05:00N 56°30' W 058°06'3 3.3 280 / 221011.6 -16.9-7.6
2018-Feb-18 04:00N 56°30' W 058°12'3 3.3 290 / 241011.0 -18.2-8.6
2018-Feb-18 03:00N 56°30' W 058°18'0 0.0 280 / 291010.4 -17.5-8.1
2018-Feb-18 02:00N 56°30' W 058°18'3 3.3 300 / 281009.4 -17.4-8.5
2018-Feb-18 01:00N 56°30' W 058°12'3 3.3 280 / 281009.1 -17.2-7.6
2018-Feb-18 00:00N 56°30' W 058°18'6 6.0 280 / 311008.4 -16.8-7.1
2018-Feb-17 23:00N 56°36' W 058°18'3 3.3 280 / 291007.6 -17.0-7.2
2018-Feb-17 22:00N 56°36' W 058°24'3 3.3 290 / 251007.1 -17.5-7.8
2018-Feb-17 21:00N 56°36' W 058°30'7 6.8 290 / 311006.1 -18.1-8.5
2018-Feb-17 20:00N 56°42' W 058°36'0 0.0 290 / 241005.3 -16.9-7.7
2018-Feb-17 19:00N 56°42' W 058°36'7 6.8 290 / 281002.7 -17.4-8.5
2018-Feb-17 18:00N 56°48' W 058°42'6 6.0 290 / 291002.3 -17.0-8.5
2018-Feb-17 17:00N 56°42' W 058°42'0 0.0 300 / 261001.3 -16.9-8.7
2018-Feb-17 16:00N 56°42' W 058°42'0 0.0 290 / 261000.7 -16.1-6.9
2018-Feb-17 15:00N 56°42' W 058°42'3 3.3 290 / 26999.4 -16.6-8.1
2018-Feb-17 14:00N 56°42' W 058°36'0 0.0 290 / 24998.7 -16.2-7.8
2018-Feb-17 13:00N 56°42' W 058°36'6 6.0 290 / 24997.3 -15.4-6.6
2018-Feb-17 12:00N 56°36' W 058°36'0 0.0 290 / 23996.6 -14.3-5.3
2018-Feb-17 11:00N 56°36' W 058°36'6 6.0 280 / 28996.2 -14.4-5.1
2018-Feb-17 10:00N 56°42' W 058°36'3 3.3 300 / 27995.1 -14.3-5.6
2018-Feb-17 09:00N 56°42' W 058°30'7 6.8 300 / 24994.8 -13.8-5.0
2018-Feb-17 08:00N 56°36' W 058°24'0 0.0 300 / 21994.3 -13.7-4.8
2018-Feb-17 07:00N 56°36' W 058°24'0 0.0 310 / 21993.9 -13.5-4.7
2018-Feb-17 06:00N 56°36' W 058°24'3 3.3 280 / 23992.4 -13.2-3.5
2018-Feb-17 05:00N 56°36' W 058°18'0 0.0 290 / 16992.5 -11.3-2.7
2018-Feb-17 04:00N 56°36' W 058°18'7 6.9 290 / 15993.0 -11.4-2.8
2018-Feb-17 03:00N 56°30' W 058°12'0 0.0 280 / 12993.5 -10.1-1.2
2018-Feb-17 02:00N 56°30' W 058°12'3 3.3 240 / 11994.1 -10.3-1.5
2018-Feb-17 01:00N 56°30' W 058°06'0 0.0 220 / 8995.5 -9.7-0.8
2018-Feb-17 00:00N 56°30' W 058°06'0 0.0 190 / 11996.0 -8.5 0.9
2018-Feb-16 23:00N 56°30' W 058°06'3 3.3 190 / 7996.6 -8.6 0.4
2018-Feb-16 22:00N 56°30' W 058°00'3 3.3 180 / 7997.2 -8.4 0.6
2018-Feb-16 21:00N 56°30' W 057°54'6 6.0 180 / 9997.6 -8.4 0.6
2018-Feb-16 20:00N 56°24' W 057°54'3 3.3 170 / 10998.7 -8.5 0.3
2018-Feb-16 19:00N 56°24' W 057°48'0 0.0 160 / 10999.8 -8.6 0.2
2018-Feb-16 18:00N 56°24' W 057°48'0 0.0 170 / 131000.9 -8.5 0.6
2018-Feb-16 17:00N 56°24' W 057°48'3 3.3 170 / 171001.9 -8.9-0.1
2018-Feb-16 16:00N 56°24' W 057°54'6 6.0 170 / 181002.6 -8.4 0.4
2018-Feb-16 15:00N 56°30' W 057°54'7 6.6 090 / 151004.2 -8.3 0.5
2018-Feb-16 14:00N 56°30' W 058°06'0 0.0 070 / 121005.9 -9.5-0.4
2018-Feb-16 13:00N 56°30' W 058°06'3 3.3 060 / 101007.3 -10.6-1.7
2018-Feb-16 12:00N 56°30' W 058°12'3 3.3 060 / 71008.5 -11.5-2.5
2018-Feb-16 11:00N 56°30' W 058°18'3 3.3 030 / 81009.6 -12.6-3.9
2018-Feb-16 10:00N 56°30' W 058°12'0 0.0 010 / 91009.6 -13.7-4.5
2018-Feb-16 09:00N 56°30' W 058°12'0 0.0 320 / 81010.7 -15.3-5.6
2018-Feb-16 08:00N 56°30' W 058°12'7 6.9 290 / 81011.8 -15.9-6.5
2018-Feb-16 07:00N 56°36' W 058°18'6 6.0 310 / 101012.4 -16.8-8.3
2018-Feb-16 06:00N 56°30' W 058°18'3 3.3 310 / 101012.6 -17.2-8.5
2018-Feb-16 05:00N 56°30' W 058°12'0 0.0 300 / 81012.8 -17.3-8.6
2018-Feb-16 04:00N 56°30' W 058°12'0 0.0 300 / 111012.7 -17.3-8.2
2018-Feb-16 03:00N 56°30' W 058°12'3 3.3 330 / 121012.7 -17.6-9.5
2018-Feb-16 02:00N 56°30' W 058°06'0 0.0 310 / 111013.0 -17.3-9.0
2018-Feb-16 01:00N 56°30' W 058°06'3 3.3 310 / 121012.7 -17.0-8.8
2018-Feb-16 00:00N 56°30' W 058°00'7 6.9 310 / 141012.0 -16.6-8.0
2018-Feb-15 23:00N 56°24' W 057°54'0 0.0 310 / 151011.2 -16.5-7.9
2018-Feb-15 22:00N 56°24' W 057°54'0 0.0 300 / 201010.6 -16.9-7.5
2018-Feb-15 21:00N 56°24' W 057°54'0 0.0 300 / 181010.1 -17.1-7.5
2018-Feb-15 20:00N 56°24' W 057°54'9 8.9 290 / 231009.0 -17.1-7.9
2018-Feb-15 19:00N 56°30' W 058°06'0 0.0 300 / 301008.3 -18.1-9.1
2018-Feb-15 18:00N 56°30' W 058°06'3 3.3 300 / 261007.1 -17.4-8.5
2018-Feb-15 17:00N 56°30' W 058°12'   300 / 291005.4 -17.3-8.2
Track history (hours):
 
Tides and Currents Weather Stations Pressure Air Temp Water Temp Dewpoint Dewpoint Depression Visibility Wind Speed Wind Dir Waves Ship Positions

Newfoundland Lynx

Last reported at 2018-Feb-25 17:00 UTC. Time now 2018-Feb-25 18:08 UTC.
Position N 47°42' W 053°12'.

Length 67.5 m; beam 13.5 m; draft 8.1 m.

Type: Fishing. MMSI: 316011910.

Wind from 340 at 16 knots

Barometer 1024.7 mb
Air temperature -3.5 ° C
Dewpoint 1.5 ° C

Date/timePositionNaut miles runAvg speedWind from/ knotsBaromVisibWave heightAir tempDewpointWater temp
2018-Feb-25 17:00N 47°42' W 053°12'0 0.0 340 / 161024.7 -3.5 1.5
2018-Feb-25 16:00N 47°42' W 053°12'0 0.0 340 / 111024.6 -4.0 1.6
2018-Feb-25 15:00N 47°42' W 053°12'0 0.0 350 / 111024.4 -4.7 2.0
2018-Feb-25 14:00N 47°42' W 053°12'0 0.0 350 / 111025.2 -5.6 1.7
2018-Feb-25 13:00N 47°42' W 053°12'0 0.0 330 / 151023.0 -6.0 1.9
2018-Feb-25 12:00N 47°42' W 053°12'0 0.0 340 / 61021.2 -7.3 1.1
2018-Feb-25 11:00N 47°42' W 053°12'0 0.0 340 / 71018.9 -8.4 0.3
2018-Feb-25 10:00N 47°42' W 053°12'0 0.0 340 / 101017.1 -8.7-0.0
2018-Feb-25 09:00N 47°42' W 053°12'0 0.0 340 / 91016.3 -8.8-0.4
2018-Feb-25 08:00N 47°42' W 053°12'0 0.0 340 / 91014.8 -8.0 0.6
2018-Feb-25 07:00N 47°42' W 053°12'0 0.0 340 / 101013.1 -7.4 1.0
2018-Feb-25 06:00N 47°42' W 053°12'0 0.0 360 / 121011.0 -5.9 2.7
2018-Feb-25 05:00N 47°42' W 053°12'0 0.0 350 / 121008.4 -4.7 4.4
2018-Feb-25 04:00N 47°42' W 053°12'0 0.0 010 / 61007.0 -3.1 5.6
2018-Feb-25 03:00N 47°42' W 053°12'0 0.0 360 / 71005.4 -3.2 5.4
2018-Feb-25 02:00N 47°42' W 053°12'0 0.0 360 / 101004.1 -2.7 5.8
2018-Feb-25 01:00N 47°42' W 053°12'0 0.0 360 / 101002.1 -2.4 6.0
2018-Feb-25 00:00N 47°42' W 053°12'0 0.0 360 / 81000.9 -1.7 6.5
2018-Feb-24 23:00N 47°42' W 053°12'0 0.0 010 / 31000.5 -0.6 7.6
2018-Feb-24 22:00N 47°42' W 053°12'0 0.0 020 / 3999.6 -0.5 7.0
2018-Feb-24 21:00N 47°42' W 053°12'0 0.0 010 / 2999.5 -0.6 6.5
2018-Feb-24 20:00N 47°42' W 053°12'0 0.0 080 / 31000.0 -1.4 5.8
2018-Feb-24 19:00N 47°42' W 053°12'0 0.0 170 / 41000.8 -1.3 5.6
2018-Feb-24 18:00N 47°42' W 053°12'0 0.0 200 / 81002.1 -1.1 5.1
2018-Feb-24 17:00N 47°42' W 053°12'0 0.0 210 / 131003.4 -1.3 4.9
2018-Feb-24 16:00N 47°42' W 053°12'0 0.0 220 / 161005.0 -1.5 5.2
2018-Feb-24 15:00N 47°42' W 053°12'0 0.0 210 / 141006.9 -2.0 5.0
2018-Feb-24 14:00N 47°42' W 053°12'0 0.0 200 / 131009.8 -2.8 4.8
2018-Feb-24 13:00N 47°42' W 053°12'0 0.0 220 / 111011.0 -3.4 5.0
2018-Feb-24 12:00N 47°42' W 053°12'0 0.0 230 / 81012.1 -4.0 4.8
2018-Feb-24 11:00N 47°42' W 053°12'0 0.0 230 / 101012.6 -4.3 5.0
2018-Feb-24 10:00N 47°42' W 053°12'0 0.0 240 / 91013.0 -4.7 4.7
2018-Feb-24 09:00N 47°42' W 053°12'0 0.0 230 / 81014.7 -4.9 4.4
2018-Feb-24 08:00N 47°42' W 053°12'0 0.0 240 / 101016.0 -5.0 3.4
2018-Feb-24 07:00N 47°42' W 053°12'0 0.0 240 / 91016.2 -6.2 2.0
2018-Feb-24 06:00N 47°42' W 053°12'0 0.0 250 / 101016.5 -6.7 1.3
2018-Feb-24 05:00N 47°42' W 053°12'0 0.0 240 / 101017.4 -7.2 0.9
2018-Feb-24 04:00N 47°42' W 053°12'0 0.0 220 / 111017.4 -7.6 0.4
2018-Feb-24 03:00N 47°42' W 053°12'0 0.0 250 / 61019.1 -7.6 0.6
2018-Feb-24 02:00N 47°42' W 053°12'1010.1 220 / 71019.8 -7.0 0.4
2018-Feb-24 01:00N 47°48' W 053°00'1414.4 260 / 121020.9 -6.6 0.7
2018-Feb-24 00:00N 48°00' W 052°48'1312.7
2018-Feb-23 23:00N 48°12' W 052°42'1414.4 290 / 231021.5 -5.5 1.2
2018-Feb-23 22:00N 48°24' W 052°30'1312.6 300 / 281020.4 -5.9 1.5
2018-Feb-23 21:00N 48°36' W 052°24'1312.6 300 / 281020.1 -7.6 0.3
2018-Feb-23 20:00N 48°48' W 052°18'1716.9 310 / 311018.7 -8.7-0.7
2018-Feb-23 19:00N 48°54' W 051°54'10 9.9 320 / 331018.0 -9.4-1.1
2018-Feb-23 18:00N 49°00' W 051°42'1414.3 310 / 361018.2 -11.2-2.7
2018-Feb-23 17:00N 49°12' W 051°30'10 9.9 310 / 371017.8 -11.7-3.4
2018-Feb-23 16:00N 49°18' W 051°18'1312.6 310 / 361018.1 -12.1-3.6
2018-Feb-23 15:00N 49°30' W 051°12'1414.3 310 / 321018.7 -12.2-3.9
2018-Feb-23 14:00N 49°42' W 051°00'1414.3 310 / 401016.9 -12.7-4.2
2018-Feb-23 13:00N 49°54' W 050°48'1414.3 310 / 391015.3 -12.8-3.9
2018-Feb-23 12:00N 50°06' W 050°36'1312.6 310 / 321012.6 -12.7-3.8
2018-Feb-23 11:00N 50°18' W 050°30'1312.6 310 / 341011.8 -11.7-2.2
2018-Feb-23 10:00N 50°30' W 050°24'1414.2 300 / 371011.5 -11.1-1.7
2018-Feb-23 09:00N 50°42' W 050°12'10 9.7 300 / 371010.9 -10.0-0.8
2018-Feb-23 08:00N 50°48' W 050°00'1818.4 300 / 301010.8 -8.6 0.9
2018-Feb-23 07:00N 51°06' W 050°06'1312.6 310 / 281010.7 -8.7 0.4
2018-Feb-23 06:00N 51°18' W 050°12'1414.1 310 / 271010.7 -9.4-0.3
2018-Feb-23 05:00N 51°30' W 050°24'10 9.6 300 / 261010.6 -10.1-0.6
2018-Feb-23 04:00N 51°36' W 050°36'1616.4 300 / 251010.6 -9.8-0.3
2018-Feb-23 03:00N 51°48' W 050°54'1414.1 300 / 271010.7 -10.2-0.8
2018-Feb-23 02:00N 52°00' W 051°06'1312.6 300 / 291008.2 -9.4 0.4
2018-Feb-23 01:00N 52°12' W 051°12'1414.1 300 / 281007.5 -10.2-0.5
2018-Feb-23 00:00N 52°24' W 051°24'1312.5 310 / 261007.7 -9.8-0.0
2018-Feb-22 23:00N 52°36' W 051°30'7 7.0 290 / 311006.4 -9.9-0.2
2018-Feb-22 22:00N 52°42' W 051°36'1414.0 290 / 301006.3 -9.7 0.1
2018-Feb-22 21:00N 52°54' W 051°48'2814.0 290 / 301008.8 -10.1-0.4
2018-Feb-22 19:00N 53°18' W 052°12'1312.5 300 / 271009.4 -8.4 1.2
2018-Feb-22 18:00N 53°30' W 052°18'1312.5 300 / 301008.5 -8.2 1.3
2018-Feb-22 17:00N 53°42' W 052°24'1312.5 300 / 291008.9 -7.5 1.8
2018-Feb-22 16:00N 53°54' W 052°30'1212.0 300 / 301008.4 -6.5 2.7
2018-Feb-22 15:00N 54°06' W 052°30'1312.5 300 / 321006.8 -5.4 3.7
2018-Feb-22 14:00N 54°18' W 052°36'1413.9 310 / 311004.9 -3.3 4.7
2018-Feb-22 13:00N 54°30' W 052°48'1212.5 310 / 301003.7 -3.4 4.8
2018-Feb-22 12:00N 54°42' W 052°54'1615.9 340 / 301002.7 -4.6 4.1
2018-Feb-22 11:00N 54°54' W 053°12'1010.4 330 / 341001.7 -3.8 3.8
2018-Feb-22 10:00N 54°54' W 053°30'1615.8 330 / 351000.8 -4.8 3.9
2018-Feb-22 09:00N 55°06' W 053°48'1515.0 330 / 35999.9 -4.3 4.3
2018-Feb-22 08:00N 55°12' W 054°12'1514.9 320 / 33999.3 -5.1 4.6
2018-Feb-22 07:00N 55°18' W 054°36'1010.2 330 / 301000.0 -5.5 3.4
2018-Feb-22 06:00N 55°18' W 054°54'1514.9 330 / 30998.4 -6.5 3.0
2018-Feb-22 05:00N 55°24' W 055°18'1413.6 310 / 24998.6 -7.5 2.4
2018-Feb-22 04:00N 55°24' W 055°42'6 6.0 280 / 20998.4 -11.3-1.4
2018-Feb-22 03:00N 55°18' W 055°42'0 0.0 310 / 11999.5 -12.9-4.0
2018-Feb-22 02:00N 55°18' W 055°42'9 9.1 290 / 101000.8 -14.0-4.4
2018-Feb-22 01:00N 55°12' W 055°54'6 6.0 270 / 11001.5 -14.4-4.9
2018-Feb-22 00:00N 55°06' W 055°54'3 3.4 170 / 51003.2 -15.0-5.3
2018-Feb-21 23:00N 55°06' W 056°00'3 3.4 170 / 81004.0 -15.5-5.8
2018-Feb-21 22:00N 55°06' W 056°06'0 0.0 150 / 61006.6 -16.0-6.3
2018-Feb-21 21:00N 55°06' W 056°06'3 3.4 160 / 81008.5 -17.4-8.5
2018-Feb-21 20:00N 55°06' W 056°00'3 3.4 210 / 51010.2 -16.5-7.1
2018-Feb-21 19:00N 55°06' W 056°06'3 3.4 240 / 61012.3 -16.6-7.3
2018-Feb-21 18:00N 55°06' W 056°12'3 3.4 250 / 91014.3 -17.4-8.9
2018-Feb-21 17:00N 55°06' W 056°06'7 6.9 270 / 131015.5 -16.1-6.9
2018-Feb-21 16:00N 55°12' W 056°00'3 3.4 270 / 131017.2 -16.5-7.8
2018-Feb-21 15:00N 55°12' W 055°54'0 0.0 290 / 161018.4 -17.1-8.6
2018-Feb-21 14:00N 55°12' W 055°54'7 6.9 280 / 191019.4 -17.0-7.8
2018-Feb-21 13:00N 55°18' W 056°00'1413.8 270 / 231020.1 -16.6-7.1
2018-Feb-21 12:00N 55°30' W 056°12'1413.8 270 / 241020.7 -16.2-6.7
2018-Feb-21 11:00N 55°42' W 056°24'9 9.0 280 / 211020.4 -14.4-4.6
2018-Feb-21 10:00N 55°48' W 056°36'9 9.0 280 / 251021.5 -15.4-5.7
2018-Feb-21 09:00N 55°54' W 056°48'1212.5 270 / 231021.9 -15.3-5.5
2018-Feb-21 08:00N 56°06' W 056°54'7 6.7 280 / 231022.7 -14.9-5.1
2018-Feb-21 07:00N 56°06' W 057°06'9 9.0 270 / 281023.0 -16.6-6.8
2018-Feb-21 06:00N 56°12' W 057°18'7 6.9 270 / 261022.9 -16.8-6.9
2018-Feb-21 05:00N 56°18' W 057°24'9 9.0 280 / 281023.5 -17.6-7.9
2018-Feb-21 04:00N 56°24' W 057°36'7 6.6 270 / 271024.2 -19.1-9.5
2018-Feb-21 03:00N 56°24' W 057°48'3 3.3 270 / 291024.8 -20.2-10.4
2018-Feb-21 02:00N 56°24' W 057°54'3 3.3 270 / 221025.8 -21.9-12.3
2018-Feb-21 01:00N 56°24' W 058°00'7 6.9 270 / 311025.1 -22.1-12.7
2018-Feb-21 00:00N 56°30' W 058°06'3 3.3 270 / 281025.7 -22.8-13.2
2018-Feb-20 23:00N 56°30' W 058°12'0 0.0 270 / 221026.0 -22.5-13.2
2018-Feb-20 22:00N 56°30' W 058°12'7 6.9 280 / 321025.3 -22.7-13.4
2018-Feb-20 21:00N 56°36' W 058°18'7 6.9 280 / 331026.1 -22.4-12.8
2018-Feb-20 20:00N 56°30' W 058°12'7 6.6 300 / 321024.1 -23.3-14.7
2018-Feb-20 19:00N 56°30' W 058°00'7 6.9 290 / 291023.4 -24.1-15.7
2018-Feb-20 18:00N 56°24' W 057°54'0 0.0 290 / 341022.0 -23.1-14.6
2018-Feb-20 17:00N 56°24' W 057°54'0 0.0 290 / 301021.8 -23.3-14.7
2018-Feb-20 16:00N 56°24' W 057°54'3 3.3 280 / 301021.8 -23.2-14.8
2018-Feb-20 15:00N 56°24' W 057°48'3 3.3 280 / 341021.7 -23.3-15.1
2018-Feb-20 14:00N 56°24' W 057°42'0 0.0 290 / 301021.2 -23.1-14.6
2018-Feb-20 13:00N 56°24' W 057°42'6 6.0 280 / 281021.7 -23.1-14.7
2018-Feb-20 12:00N 56°18' W 057°42'3 3.3 280 / 331020.7 -22.0-13.4
2018-Feb-20 11:00N 56°18' W 057°36'0 0.0 300 / 251021.4 -21.6-13.0
2018-Feb-20 10:00N 56°18' W 057°36'0 0.0 310 / 251020.8 -21.6-13.1
2018-Feb-20 09:00N 56°18' W 057°36'7 6.9 300 / 251020.3 -21.0-12.6
2018-Feb-20 08:00N 56°12' W 057°30'0 0.0 310 / 231019.8 -19.1-10.4
2018-Feb-20 07:00N 56°12' W 057°30'7 6.9 310 / 221020.1 -17.8-8.6
2018-Feb-20 06:00N 56°18' W 057°36'0 0.0 300 / 201019.2 -17.2-7.9
2018-Feb-20 05:00N 56°18' W 057°36'7 6.9 300 / 151018.7 -15.3-5.9
2018-Feb-20 04:00N 56°24' W 057°42'3 3.3 310 / 121018.9 -14.6-5.8
2018-Feb-20 03:00N 56°24' W 057°48'0 0.0 290 / 111019.0 -13.7-4.6
2018-Feb-20 02:00N 56°24' W 057°48'3 3.3 240 / 101019.2 -14.4-6.7
2018-Feb-20 01:00N 56°24' W 057°42'6 6.0 270 / 91019.6 -13.9-5.9
2018-Feb-20 00:00N 56°18' W 057°42'0 0.0 240 / 121020.3 -14.1-6.3
2018-Feb-19 23:00N 56°18' W 057°42'0 0.0 240 / 141021.4 -13.8-5.6
2018-Feb-19 22:00N 56°18' W 057°42'7 6.9 240 / 131021.8 -13.6-4.9
2018-Feb-19 21:00N 56°24' W 057°48'3 3.3 240 / 131022.1 -14.3-6.2
2018-Feb-19 20:00N 56°24' W 057°54'0 0.0 240 / 141022.1 -14.1-6.1
2018-Feb-19 19:00N 56°24' W 057°54'3 3.3 240 / 141022.6 -14.2-7.2
2018-Feb-19 18:00N 56°24' W 058°00'7 6.9 250 / 201022.6 -14.1-6.8
2018-Feb-19 17:00N 56°30' W 058°06'0 0.0 250 / 201023.0 -14.5-7.3
2018-Feb-19 16:00N 56°30' W 058°06'0 0.0 250 / 171023.0 -15.1-7.5
2018-Feb-19 15:00N 56°30' W 058°06'3 3.3 260 / 211022.8 -15.7-9.0
2018-Feb-19 14:00N 56°30' W 058°00'7 6.9 270 / 211022.6 -16.4-9.7
2018-Feb-19 13:00N 56°24' W 057°54'0 0.0 270 / 261022.2 -16.0-8.6
2018-Feb-19 12:00N 56°24' W 057°54'0 0.0 270 / 251022.1 -16.2-8.4
2018-Feb-19 11:00N 56°24' W 057°54'6 6.0 270 / 211022.0 -15.6-6.8
2018-Feb-19 10:00N 56°30' W 057°54'7 6.6 260 / 231021.9 -15.7-6.5
2018-Feb-19 09:00N 56°30' W 058°06'0 0.0 280 / 211021.4 -16.6-7.7
2018-Feb-19 08:00N 56°30' W 058°06'3 3.3 300 / 221021.4 -17.1-8.1
2018-Feb-19 07:00N 56°30' W 058°12'7 6.9 290 / 191020.2 -16.4-7.8
2018-Feb-19 06:00N 56°36' W 058°18'0 0.0 300 / 251019.2 -16.0-7.0
2018-Feb-19 05:00N 56°36' W 058°18'3 3.3 290 / 271017.9 -14.5-5.7
2018-Feb-19 04:00N 56°36' W 058°24'0 0.0 300 / 211016.2 -13.4-5.1
2018-Feb-19 03:00N 56°36' W 058°24'0 0.0 300 / 221014.8 -12.6-5.1
2018-Feb-19 02:00N 56°36' W 058°24'3 3.3 290 / 251012.9 -10.8-2.4
2018-Feb-19 01:00N 56°36' W 058°18'0 0.0 280 / 251011.7 -9.9-1.7
2018-Feb-19 00:00N 56°36' W 058°18'7 6.9 250 / 221010.9 -10.3-2.0
2018-Feb-18 23:00N 56°30' W 058°12'0 0.0 240 / 181011.4 -11.7-3.3
2018-Feb-18 22:00N 56°30' W 058°12'3 3.3 240 / 201011.1 -12.8-4.2
2018-Feb-18 21:00N 56°30' W 058°06'0 0.0 240 / 161011.4 -12.6-4.2
2018-Feb-18 20:00N 56°30' W 058°06'3 3.3 220 / 161010.9 -12.7-4.4
2018-Feb-18 19:00N 56°30' W 058°00'3 3.3 210 / 151011.0 -11.6-3.7
2018-Feb-18 18:00N 56°30' W 057°54'6 6.0 220 / 131011.3 -11.3-4.0
2018-Feb-18 17:00N 56°24' W 057°54'3 3.3 220 / 111012.0 -12.5-5.2
2018-Feb-18 16:00N 56°24' W 057°48'0 0.0 230 / 151012.3 -12.9-4.9
2018-Feb-18 15:00N 56°24' W 057°48'9 9.0 250 / 161013.1 -14.2-5.8
2018-Feb-18 14:00N 56°18' W 057°36'0 0.0 250 / 151013.8 -12.6-3.8
2018-Feb-18 13:00N 56°18' W 057°36'3 3.3 260 / 151013.7 -13.3-4.3
2018-Feb-18 12:00N 56°18' W 057°42'6 6.0 270 / 141014.0 -13.9-4.6
2018-Feb-18 11:00N 56°24' W 057°42'3 3.3 270 / 161013.2 -15.5-6.1
2018-Feb-18 10:00N 56°24' W 057°48'3 3.3 270 / 151013.0 -16.3-7.0
2018-Feb-18 09:00N 56°24' W 057°54'0 0.0 280 / 181012.6 -15.7-5.9
2018-Feb-18 08:00N 56°24' W 057°54'3 3.3 290 / 231012.6 -16.5-6.8
2018-Feb-18 07:00N 56°24' W 058°00'7 6.9 290 / 211012.2 -16.9-7.3
2018-Feb-18 06:00N 56°30' W 058°06'0 0.0 290 / 191011.9 -17.1-7.5
2018-Feb-18 05:00N 56°30' W 058°06'3 3.3 280 / 221011.6 -16.9-7.6
2018-Feb-18 04:00N 56°30' W 058°12'3 3.3 290 / 241011.0 -18.2-8.6
2018-Feb-18 03:00N 56°30' W 058°18'0 0.0 280 / 291010.4 -17.5-8.1
2018-Feb-18 02:00N 56°30' W 058°18'3 3.3 300 / 281009.4 -17.4-8.5
2018-Feb-18 01:00N 56°30' W 058°12'3 3.3 280 / 281009.1 -17.2-7.6
2018-Feb-18 00:00N 56°30' W 058°18'6 6.0 280 / 311008.4 -16.8-7.1
2018-Feb-17 23:00N 56°36' W 058°18'3 3.3 280 / 291007.6 -17.0-7.2
2018-Feb-17 22:00N 56°36' W 058°24'3 3.3 290 / 251007.1 -17.5-7.8
2018-Feb-17 21:00N 56°36' W 058°30'7 6.8 290 / 311006.1 -18.1-8.5
2018-Feb-17 20:00N 56°42' W 058°36'0 0.0 290 / 241005.3 -16.9-7.7
2018-Feb-17 19:00N 56°42' W 058°36'7 6.8 290 / 281002.7 -17.4-8.5
2018-Feb-17 18:00N 56°48' W 058°42'6 6.0 290 / 291002.3 -17.0-8.5
2018-Feb-17 17:00N 56°42' W 058°42'0 0.0 300 / 261001.3 -16.9-8.7
2018-Feb-17 16:00N 56°42' W 058°42'0 0.0 290 / 261000.7 -16.1-6.9
2018-Feb-17 15:00N 56°42' W 058°42'3 3.3 290 / 26999.4 -16.6-8.1
2018-Feb-17 14:00N 56°42' W 058°36'0 0.0 290 / 24998.7 -16.2-7.8
2018-Feb-17 13:00N 56°42' W 058°36'6 6.0 290 / 24997.3 -15.4-6.6
2018-Feb-17 12:00N 56°36' W 058°36'0 0.0 290 / 23996.6 -14.3-5.3
2018-Feb-17 11:00N 56°36' W 058°36'6 6.0 280 / 28996.2 -14.4-5.1
2018-Feb-17 10:00N 56°42' W 058°36'3 3.3 300 / 27995.1 -14.3-5.6
2018-Feb-17 09:00N 56°42' W 058°30'7 6.8 300 / 24994.8 -13.8-5.0
2018-Feb-17 08:00N 56°36' W 058°24'0 0.0 300 / 21994.3 -13.7-4.8
2018-Feb-17 07:00N 56°36' W 058°24'0 0.0 310 / 21993.9 -13.5-4.7
2018-Feb-17 06:00N 56°36' W 058°24'3 3.3 280 / 23992.4 -13.2-3.5
2018-Feb-17 05:00N 56°36' W 058°18'0 0.0 290 / 16992.5 -11.3-2.7
2018-Feb-17 04:00N 56°36' W 058°18'7 6.9 290 / 15993.0 -11.4-2.8
2018-Feb-17 03:00N 56°30' W 058°12'0 0.0 280 / 12993.5 -10.1-1.2
2018-Feb-17 02:00N 56°30' W 058°12'3 3.3 240 / 11994.1 -10.3-1.5
2018-Feb-17 01:00N 56°30' W 058°06'0 0.0 220 / 8995.5 -9.7-0.8
2018-Feb-17 00:00N 56°30' W 058°06'0 0.0 190 / 11996.0 -8.5 0.9
2018-Feb-16 23:00N 56°30' W 058°06'3 3.3 190 / 7996.6 -8.6 0.4
2018-Feb-16 22:00N 56°30' W 058°00'3 3.3 180 / 7997.2 -8.4 0.6
2018-Feb-16 21:00N 56°30' W 057°54'6 6.0 180 / 9997.6 -8.4 0.6
2018-Feb-16 20:00N 56°24' W 057°54'3 3.3 170 / 10998.7 -8.5 0.3
2018-Feb-16 19:00N 56°24' W 057°48'0 0.0 160 / 10999.8 -8.6 0.2
2018-Feb-16 18:00N 56°24' W 057°48'0 0.0 170 / 131000.9 -8.5 0.6
2018-Feb-16 17:00N 56°24' W 057°48'3 3.3 170 / 171001.9 -8.9-0.1
2018-Feb-16 16:00N 56°24' W 057°54'6 6.0 170 / 181002.6 -8.4 0.4
2018-Feb-16 15:00N 56°30' W 057°54'7 6.6 090 / 151004.2 -8.3 0.5
2018-Feb-16 14:00N 56°30' W 058°06'0 0.0 070 / 121005.9 -9.5-0.4
2018-Feb-16 13:00N 56°30' W 058°06'3 3.3 060 / 101007.3 -10.6-1.7
2018-Feb-16 12:00N 56°30' W 058°12'3 3.3 060 / 71008.5 -11.5-2.5
2018-Feb-16 11:00N 56°30' W 058°18'3 3.3 030 / 81009.6 -12.6-3.9
2018-Feb-16 10:00N 56°30' W 058°12'0 0.0 010 / 91009.6 -13.7-4.5
2018-Feb-16 09:00N 56°30' W 058°12'0 0.0 320 / 81010.7 -15.3-5.6
2018-Feb-16 08:00N 56°30' W 058°12'7 6.9 290 / 81011.8 -15.9-6.5
2018-Feb-16 07:00N 56°36' W 058°18'6 6.0 310 / 101012.4 -16.8-8.3
2018-Feb-16 06:00N 56°30' W 058°18'3 3.3 310 / 101012.6 -17.2-8.5
2018-Feb-16 05:00N 56°30' W 058°12'0 0.0 300 / 81012.8 -17.3-8.6
2018-Feb-16 04:00N 56°30' W 058°12'0 0.0 300 / 111012.7 -17.3-8.2
2018-Feb-16 03:00N 56°30' W 058°12'3 3.3 330 / 121012.7 -17.6-9.5
2018-Feb-16 02:00N 56°30' W 058°06'0 0.0 310 / 111013.0 -17.3-9.0
2018-Feb-16 01:00N 56°30' W 058°06'3 3.3 310 / 121012.7 -17.0-8.8
2018-Feb-16 00:00N 56°30' W 058°00'7 6.9 310 / 141012.0 -16.6-8.0
2018-Feb-15 23:00N 56°24' W 057°54'0 0.0 310 / 151011.2 -16.5-7.9
2018-Feb-15 22:00N 56°24' W 057°54'0 0.0 300 / 201010.6 -16.9-7.5
2018-Feb-15 21:00N 56°24' W 057°54'0 0.0 300 / 181010.1 -17.1-7.5
2018-Feb-15 20:00N 56°24' W 057°54'9 8.9 290 / 231009.0 -17.1-7.9
2018-Feb-15 19:00N 56°30' W 058°06'0 0.0 300 / 301008.3 -18.1-9.1
2018-Feb-15 18:00N 56°30' W 058°06'3 3.3 300 / 261007.1 -17.4-8.5
2018-Feb-15 17:00N 56°30' W 058°12'   300 / 291005.4 -17.3-8.2

Dump ship's entire track history